Time;durP1;ratioP1;P1;durP2;ratioP2;P2;SDS_P1;SDS_P2;PMS_P1;PMS_P2;Temp;Humidity;BMP_temperature;BMP_pressure;BME280_temperature;BME280_humidity;BME280_pressure;Samples;Min_cycle;Max_cycle;Signal;HPM_P1;HPM_P2
2023/05/10 00:01:25;;;;;;;;;;;;;;;20.39;52.22;100784.50;5127259;27;21274;-68
2023/05/10 00:03:51;;;;;;;;;;;;;;;20.38;52.28;100780.09;5131373;27;19915;-68
2023/05/10 00:06:16;;;;;;;;;;;;;;;20.38;52.10;100779.25;5133149;27;19924;-68
2023/05/10 00:08:41;;;;;;;;;;;;;;;20.38;52.11;100773.88;5120519;27;19919;-68
2023/05/10 00:11:06;;;;;;;;;;;;;;;20.37;52.27;100773.03;5140022;27;19984;-68
2023/05/10 00:13:31;;;;;;;;;;;;;;;20.37;52.20;100775.72;5131864;27;20383;-68
2023/05/10 00:15:57;;;;;;;;;;;;;;;20.36;52.21;100773.22;5134782;27;19946;-68
2023/05/10 00:18:22;;;;;;;;;;;;;;;20.35;52.34;100769.69;5133518;27;19966;-68
2023/05/10 00:20:48;;;;;;;;;;;;;;;20.36;52.08;100770.53;5130595;27;19915;-68
2023/05/10 00:23:13;;;;;;;;;;;;;;;20.35;52.11;100769.69;5129230;27;19916;-68
2023/05/10 00:25:38;;;;;;;;;;;;;;;20.34;52.09;100772.53;5112200;27;19919;-68
2023/05/10 00:28:04;;;;;;;;;;;;;;;20.34;51.99;100765.28;5129235;27;19918;-68
2023/05/10 00:30:29;;;;;;;;;;;;;;;20.33;52.41;100766.31;5130456;27;19945;-68
2023/05/10 00:32:54;;;;;;;;;;;;;;;20.32;52.30;100764.63;5133411;27;19956;-68
2023/05/10 00:35:19;;;;;;;;;;;;;;;20.32;52.23;100761.09;5128702;27;19979;-68
2023/05/10 00:37:45;;;;;;;;;;;;;;;20.32;52.22;100755.69;5118440;27;19919;-68
2023/05/10 00:40:10;;;;;;;;;;;;;;;20.30;52.25;100758.56;5115174;28;19933;-68
2023/05/10 00:42:35;;;;;;;;;;;;;;;20.31;51.98;100765.66;5134001;27;20344;-68
2023/05/10 00:45:01;;;;;;;;;;;;;;;20.30;51.97;100755.88;5135505;27;20386;-68
2023/05/10 00:47:26;;;;;;;;;;;;;;;20.29;52.06;100754.19;5129598;27;19919;-68
2023/05/10 00:49:51;;;;;;;;;;;;;;;20.29;52.36;100759.59;5116252;27;19916;-68
2023/05/10 00:52:16;;;;;;;;;;;;;;;20.29;52.24;100750.66;5129113;27;19916;-68
2023/05/10 00:54:42;;;;;;;;;;;;;;;20.28;52.26;100755.22;5130755;27;19934;-68
2023/05/10 00:57:07;;;;;;;;;;;;;;;20.28;52.02;100755.22;5130627;27;20315;-68
2023/05/10 00:59:32;;;;;;;;;;;;;;;20.28;52.32;100751.69;5133108;27;19915;-68
2023/05/10 01:01:57;;;;;;;;;;;;;;;20.28;52.23;100751.69;5123608;28;19912;-68
2023/05/10 01:04:25;;;;;;;;;;;;;;;20.27;52.16;100756.25;5132409;27;19912;-68
2023/05/10 01:06:50;;;;;;;;;;;;;;;20.26;51.94;100751.00;5133971;28;19920;-68
2023/05/10 01:09:15;;;;;;;;;;;;;;;20.26;52.00;100759.09;5138101;27;19942;-68
2023/05/10 01:11:41;;;;;;;;;;;;;;;20.24;52.09;100759.31;5119083;28;19913;-68
2023/05/10 01:14:06;;;;;;;;;;;;;;;20.25;51.88;100754.75;5110871;28;19959;-68
2023/05/10 01:16:32;;;;;;;;;;;;;;;20.25;52.16;100754.75;5132175;28;19926;-68
2023/05/10 01:18:57;;;;;;;;;;;;;;;20.23;52.07;100755.78;5131749;28;19942;-68
2023/05/10 01:21:27;;;;;;;;;;;;;;;20.24;52.13;100759.31;5130947;28;19915;-68
2023/05/10 01:24:07;;;;;;;;;;;;;;;20.22;51.88;100748.69;5130047;28;19918;-68
2023/05/10 01:26:32;;;;;;;;;;;;;;;20.22;52.14;100748.69;5123973;28;19911;-68
2023/05/10 01:29:12;;;;;;;;;;;;;;;20.22;52.10;100750.56;5129049;28;19930;-68
2023/05/10 01:31:56;;;;;;;;;;;;;;;20.21;52.13;100746.16;5131004;28;19922;-68
2023/05/10 01:34:25;;;;;;;;;;;;;;;20.20;52.16;100745.31;5129460;28;19922;-68
2023/05/10 01:36:55;;;;;;;;;;;;;;;20.21;51.91;100754.25;5126829;28;19912;-68
2023/05/10 01:39:22;;;;;;;;;;;;;;;20.20;52.00;100749.88;5118993;28;19919;-68
2023/05/10 01:42:03;;;;;;;;;;;;;;;20.20;51.82;100749.88;5123357;28;20342;-68
2023/05/10 01:44:35;;;;;;;;;;;;;;;20.18;51.87;100752.78;5135143;28;19911;-68
2023/05/10 01:47:21;;;;;;;;;;;;;;;20.18;52.00;100752.78;5110379;28;19943;-68
2023/05/10 01:49:50;;;;;;;;;;;;;;;20.17;52.04;100752.94;5116325;27;19937;-68
2023/05/10 01:52:18;;;;;;;;;;;;;;;20.17;51.88;100756.47;5115599;28;19965;-68
2023/05/10 01:54:44;;;;;;;;;;;;;;;20.18;52.07;100751.94;5125243;28;19947;-68
2023/05/10 01:57:11;;;;;;;;;;;;;;;20.17;52.03;100752.94;5111310;28;19918;-68
2023/05/10 01:59:39;;;;;;;;;;;;;;;20.16;51.74;100754.81;5116870;28;19916;-68
2023/05/10 02:02:04;;;;;;;;;;;;;;;20.16;51.85;100754.81;5112445;28;19962;-67
2023/05/10 02:04:29;;;;;;;;;;;;;;;20.15;51.76;100752.28;5122601;28;19915;-68
2023/05/10 02:06:54;;;;;;;;;;;;;;;20.15;52.00;100763.09;5118029;28;19919;-68
2023/05/10 02:09:20;;;;;;;;;;;;;;;20.14;52.01;100767.66;5112596;28;20047;-68
2023/05/10 02:11:45;;;;;;;;;;;;;;;20.14;51.76;100754.16;5117503;28;19918;-68
2023/05/10 02:14:10;;;;;;;;;;;;;;;20.13;51.78;100765.13;5106124;28;19927;-68
2023/05/10 02:16:35;;;;;;;;;;;;;;;20.13;51.89;100768.66;5129049;28;19920;-68
2023/05/10 02:19:01;;;;;;;;;;;;;;;20.13;51.83;100767.81;5130427;28;19916;-68
2023/05/10 02:21:26;;;;;;;;;;;;;;;20.13;51.93;100770.50;5133327;27;19977;-68
2023/05/10 02:23:52;;;;;;;;;;;;;;;20.12;52.06;100772.38;5133329;27;19915;-68
2023/05/10 02:26:17;;;;;;;;;;;;;;;20.12;51.77;100774.25;5115027;27;20360;-68
2023/05/10 02:28:42;;;;;;;;;;;;;;;20.11;51.73;100772.56;5117272;27;19918;-68
2023/05/10 02:31:09;;;;;;;;;;;;;;;20.11;51.72;100772.56;5133181;27;20280;-68
2023/05/10 02:33:35;;;;;;;;;;;;;;;20.10;51.69;100768.19;5138279;27;19923;-68
2023/05/10 02:36:00;;;;;;;;;;;;;;;20.09;51.99;100775.47;5125658;28;19916;-68
2023/05/10 02:38:26;;;;;;;;;;;;;;;20.09;51.97;100772.75;5137232;27;19916;-68
2023/05/10 02:40:51;;;;;;;;;;;;;;;20.09;51.56;100777.28;5135514;27;19916;-68
2023/05/10 02:43:16;;;;;;;;;;;;;;;20.09;51.90;100770.06;5134398;27;19918;-68
2023/05/10 02:45:41;;;;;;;;;;;;;;;20.09;51.73;100770.06;5116575;27;19938;-68
2023/05/10 02:48:06;;;;;;;;;;;;;;;20.08;51.96;100770.22;5114669;27;19919;-68
2023/05/10 02:50:32;;;;;;;;;;;;;;;20.08;52.09;100772.91;5126268;27;19916;-68
2023/05/10 02:53:02;;;;;;;;;;;;;;;20.07;51.88;100771.25;5116345;27;19916;-68
2023/05/10 02:55:27;;;;;;;;;;;;;;;20.06;51.74;100773.09;5117374;27;20355;-68
2023/05/10 02:57:59;;;;;;;;;;;;;;;20.06;51.79;100772.28;5125968;27;19915;-68
2023/05/10 03:00:24;;;;;;;;;;;;;;;20.06;51.81;100774.97;5120301;27;20006;-68
2023/05/10 03:02:49;;;;;;;;;;;;;;;20.05;51.98;100776.84;5133946;27;19942;-68
2023/05/10 03:05:14;;;;;;;;;;;;;;;20.06;51.79;100777.66;5133610;27;20360;-68
2023/05/10 03:07:40;;;;;;;;;;;;;;;20.05;52.12;100774.13;5136101;27;19916;-68
2023/05/10 03:10:05;;;;;;;;;;;;;;;20.03;51.67;100776.16;5132203;27;19919;-68
2023/05/10 03:12:42;;;;;;;;;;;;;;;20.04;51.69;100777.00;5133171;27;19951;-68
2023/05/10 03:15:16;;;;;;;;;;;;;;;20.03;51.74;100773.47;5127401;27;20349;-68
2023/05/10 03:17:51;;;;;;;;;;;;;;;20.03;52.02;100778.03;5112751;28;19923;-68
2023/05/10 03:20:21;;;;;;;;;;;;;;;20.01;51.97;100772.81;5117075;28;19916;-68
2023/05/10 03:22:47;;;;;;;;;;;;;;;20.01;51.69;100777.34;5123464;27;19911;-68
2023/05/10 03:25:12;;;;;;;;;;;;;;;20.01;51.76;100778.22;5125509;27;19930;-68
2023/05/10 03:27:39;;;;;;;;;;;;;;;20.00;51.69;100779.22;5135912;27;19912;-69
2023/05/10 03:30:05;;;;;;;;;;;;;;;20.01;51.89;100780.03;5129078;27;19915;-69
2023/05/10 03:32:32;;;;;;;;;;;;;;;20.00;51.67;100791.88;5113302;28;20295;-68
2023/05/10 03:34:57;;;;;;;;;;;;;;;20.00;51.77;100781.91;5136270;27;19924;-68
2023/05/10 03:37:22;;;;;;;;;;;;;;;20.00;51.70;100787.31;5131152;27;19934;-68
2023/05/10 03:39:47;;;;;;;;;;;;;;;19.99;51.79;100791.03;5132664;27;19915;-68
2023/05/10 03:42:13;;;;;;;;;;;;;;;19.99;52.02;100791.03;5130875;27;19959;-68
2023/05/10 03:44:41;;;;;;;;;;;;;;;19.98;51.86;100787.50;5130416;27;19911;-68
2023/05/10 03:47:06;;;;;;;;;;;;;;;20.00;51.73;100791.88;5115259;27;20391;-68
2023/05/10 03:49:32;;;;;;;;;;;;;;;19.97;51.92;100785.81;5133847;27;19918;-68
2023/05/10 03:51:57;;;;;;;;;;;;;;;19.99;52.03;100791.03;5134604;27;19923;-68
2023/05/10 03:54:22;;;;;;;;;;;;;;;19.98;51.93;100792.06;5134285;27;19954;-68
2023/05/10 03:56:50;;;;;;;;;;;;;;;19.98;52.39;100792.88;5119530;27;19918;-68
2023/05/10 03:59:15;;;;;;;;;;;;;;;19.98;52.35;100783.97;5134403;27;20020;-67
2023/05/10 04:01:41;;;;;;;;;;;;;;;19.98;52.51;100790.19;5137338;27;19920;-67
2023/05/10 04:04:06;;;;;;;;;;;;;;;19.99;52.48;100791.03;5131886;27;19908;-67
2023/05/10 04:06:31;;;;;;;;;;;;;;;20.00;52.44;100797.25;5139177;27;19915;-68
2023/05/10 04:08:59;;;;;;;;;;;;;;;20.00;52.60;100800.78;5130238;27;19937;-68
2023/05/10 04:11:24;;;;;;;;;;;;;;;20.01;52.69;100801.63;5132104;27;19930;-68
2023/05/10 04:13:49;;;;;;;;;;;;;;;20.00;52.62;100803.50;5131640;27;19967;-68
2023/05/10 04:16:15;;;;;;;;;;;;;;;20.01;52.98;100809.72;5133371;27;19990;-68
2023/05/10 04:18:40;;;;;;;;;;;;;;;20.01;52.73;100817.81;5130351;27;19938;-68
2023/05/10 04:21:10;;;;;;;;;;;;;;;20.02;52.86;100809.56;5133568;27;19983;-68
2023/05/10 04:23:35;;;;;;;;;;;;;;;20.01;52.87;100805.19;5133357;27;20435;-68
2023/05/10 04:26:01;;;;;;;;;;;;;;;20.02;52.97;100806.88;5133457;27;19915;-68
2023/05/10 04:28:27;;;;;;;;;;;;;;;20.03;53.23;100805.00;5138011;27;19919;-67
2023/05/10 04:30:52;;;;;;;;;;;;;;;20.03;53.31;100805.00;5133374;27;19975;-67
2023/05/10 04:33:17;;;;;;;;;;;;;;;20.03;53.21;100810.41;5134372;27;20010;-67
2023/05/10 04:35:42;;;;;;;;;;;;;;;20.01;53.18;100816.00;5132181;27;19915;-67
2023/05/10 04:38:07;;;;;;;;;;;;;;;20.02;53.13;100817.66;5130794;27;19916;-74
2023/05/10 04:40:32;;;;;;;;;;;;;;;20.01;53.10;100813.28;5133600;27;19922;-69
2023/05/10 04:42:58;;;;;;;;;;;;;;;20.01;52.80;100818.69;5129764;27;19915;-68
2023/05/10 04:45:23;;;;;;;;;;;;;;;20.02;52.85;100823.06;5130506;27;19941;-67
2023/05/10 04:47:48;;;;;;;;;;;;;;;20.01;53.10;100816.00;5130127;27;20365;-67
2023/05/10 04:50:13;;;;;;;;;;;;;;;20.02;52.97;100817.66;5134110;27;19912;-67
2023/05/10 04:52:38;;;;;;;;;;;;;;;20.01;53.00;100826.78;5131003;27;19915;-68
2023/05/10 04:55:04;;;;;;;;;;;;;;;20.02;53.17;100820.38;5125668;28;19920;-68
2023/05/10 04:57:29;;;;;;;;;;;;;;;20.03;53.17;100830.13;5130581;27;19924;-68
2023/05/10 04:59:54;;;;;;;;;;;;;;;20.04;53.31;100830.97;5135462;27;19919;-68
2023/05/10 05:02:20;;;;;;;;;;;;;;;20.03;53.33;100835.53;5130272;27;19951;-68
2023/05/10 05:04:45;;;;;;;;;;;;;;;20.03;53.13;100834.69;5133340;27;19919;-68
2023/05/10 05:07:10;;;;;;;;;;;;;;;20.03;53.11;100840.94;5132727;27;19922;-68
2023/05/10 05:09:36;;;;;;;;;;;;;;;20.03;53.14;100848.19;5133367;28;20396;-68
2023/05/10 05:12:01;;;;;;;;;;;;;;;20.03;53.46;100846.31;5129772;28;19912;-68
2023/05/10 05:14:26;;;;;;;;;;;;;;;20.04;53.39;100852.56;5129348;28;20471;-68
2023/05/10 05:16:52;;;;;;;;;;;;;;;20.01;53.47;100845.69;5115017;28;19920;-68
2023/05/10 05:19:17;;;;;;;;;;;;;;;20.03;53.54;100854.41;5128314;28;19979;-68
2023/05/10 05:21:43;;;;;;;;;;;;;;;20.03;53.52;100856.28;5135752;28;19915;-68
2023/05/10 05:24:08;;;;;;;;;;;;;;;20.03;53.32;100858.97;5134011;28;19911;-69
2023/05/10 05:26:33;;;;;;;;;;;;;;;20.03;53.40;100861.69;5130599;28;19916;-68
2023/05/10 05:28:58;;;;;;;;;;;;;;;20.02;53.21;100860.00;5137397;28;19992;-69
2023/05/10 05:31:24;;;;;;;;;;;;;;;20.02;53.49;100871.63;5128807;28;19916;-68
2023/05/10 05:33:49;;;;;;;;;;;;;;;20.01;53.27;100863.69;5133860;28;19961;-69
2023/05/10 05:36:14;;;;;;;;;;;;;;;20.01;53.19;100861.00;5131756;28;19920;-69
2023/05/10 05:38:39;;;;;;;;;;;;;;;20.00;53.50;100862.88;5134295;28;20283;-72
2023/05/10 05:41:05;;;;;;;;;;;;;;;20.01;53.41;100866.41;5128614;28;19923;-72
2023/05/10 05:43:30;;;;;;;;;;;;;;;20.01;53.28;100875.38;5115454;28;19925;-71
2023/05/10 05:45:57;;;;;;;;;;;;;;;20.00;53.35;100862.88;5129076;28;19912;-69
2023/05/10 05:48:22;;;;;;;;;;;;;;;20.01;53.18;100871.81;5128324;27;19934;-70
2023/05/10 05:50:48;;;;;;;;;;;;;;;20.00;53.33;100875.53;5134989;27;19919;-69
2023/05/10 05:53:13;;;;;;;;;;;;;;;20.00;53.50;100876.34;5130366;28;19911;-70
2023/05/10 05:55:38;;;;;;;;;;;;;;;20.00;53.21;100878.22;5139821;27;19926;-69
2023/05/10 05:58:03;;;;;;;;;;;;;;;20.01;53.17;100879.91;5136188;27;19912;-70
2023/05/10 06:00:28;;;;;;;;;;;;;;;19.99;53.04;100874.69;5132938;27;19945;-69
2023/05/10 06:02:53;;;;;;;;;;;;;;;20.00;53.32;100878.22;5138209;27;19964;-68
2023/05/10 06:05:20;;;;;;;;;;;;;;;19.99;53.06;100877.38;5133864;27;19912;-68
2023/05/10 06:07:45;;;;;;;;;;;;;;;19.99;53.14;100880.09;5133223;27;19911;-68
2023/05/10 06:10:11;;;;;;;;;;;;;;;19.98;53.16;100890.03;5133035;27;19964;-68
2023/05/10 06:12:36;;;;;;;;;;;;;;;19.99;53.23;100885.47;5135532;27;19911;-68
2023/05/10 06:15:02;;;;;;;;;;;;;;;19.99;53.13;100888.19;5134408;27;19919;-68
2023/05/10 06:17:27;;;;;;;;;;;;;;;20.00;52.88;100889.00;5134208;27;19927;-68
2023/05/10 06:19:52;;;;;;;;;;;;;;;19.98;53.06;100895.44;5134105;27;19912;-69
2023/05/10 06:22:17;;;;;;;;;;;;;;;19.98;53.00;100890.03;5141388;27;19921;-69
2023/05/10 06:24:43;;;;;;;;;;;;;;;19.98;53.07;100884.66;5136652;27;19912;-67
2023/05/10 06:27:08;;;;;;;;;;;;;;;20.00;52.81;100886.31;5116818;27;19921;-68
2023/05/10 06:29:33;;;;;;;;;;;;;;;19.98;52.75;100889.19;5136676;27;19912;-68
2023/05/10 06:31:59;;;;;;;;;;;;;;;19.99;52.99;100893.56;5132638;27;20212;-68
2023/05/10 06:34:24;;;;;;;;;;;;;;;19.99;52.74;100890.88;5136661;27;20417;-68
2023/05/10 06:36:49;;;;;;;;;;;;;;;19.98;53.13;100892.75;5133969;27;20364;-69
2023/05/10 06:39:14;;;;;;;;;;;;;;;19.98;52.88;100894.59;5137251;27;19922;-69
2023/05/10 06:41:40;;;;;;;;;;;;;;;19.97;52.84;100896.47;5114030;27;19912;-70
2023/05/10 06:44:05;;;;;;;;;;;;;;;19.98;53.13;100903.53;5118237;27;19919;-69
2023/05/10 06:46:30;;;;;;;;;;;;;;;19.98;52.71;100910.78;5134213;27;19918;-69
2023/05/10 06:48:55;;;;;;;;;;;;;;;19.97;52.85;100901.84;5138934;27;19912;-69
2023/05/10 06:51:21;;;;;;;;;;;;;;;19.97;52.97;100903.72;5141571;27;19912;-69
2023/05/10 06:53:46;;;;;;;;;;;;;;;19.97;52.93;100904.56;5112551;27;19919;-69
2023/05/10 06:56:11;;;;;;;;;;;;;;;19.96;52.83;100916.38;5136431;27;19915;-69
2023/05/10 06:58:36;;;;;;;;;;;;;;;19.93;52.81;100918.59;5132235;27;19935;-69
2023/05/10 07:01:02;;;;;;;;;;;;;;;19.95;52.77;100916.53;5131609;27;19916;-69
2023/05/10 07:03:27;;;;;;;;;;;;;;;19.95;52.98;100922.75;5125301;27;19951;-69
2023/05/10 07:05:53;;;;;;;;;;;;;;;19.95;52.60;100920.06;5133523;27;19911;-68
2023/05/10 07:08:18;;;;;;;;;;;;;;;19.95;52.83;100927.31;5132757;27;19964;-69
2023/05/10 07:10:43;;;;;;;;;;;;;;;19.95;52.66;100930.03;5133110;27;19915;-69
2023/05/10 07:13:09;;;;;;;;;;;;;;;19.94;52.87;100926.50;5117165;27;19916;-69
2023/05/10 07:15:34;;;;;;;;;;;;;;;19.94;52.73;100933.75;5132056;27;19922;-69
2023/05/10 07:18:00;;;;;;;;;;;;;;;19.93;52.85;100923.97;5137694;27;19924;-69
2023/05/10 07:20:25;;;;;;;;;;;;;;;19.93;52.55;100932.06;5114694;27;19912;-69
2023/05/10 07:22:50;;;;;;;;;;;;;;;19.93;52.58;100932.06;5117796;27;19915;-69
2023/05/10 07:25:15;;;;;;;;;;;;;;;19.93;52.68;100937.47;5135114;27;19918;-69
2023/05/10 07:27:41;;;;;;;;;;;;;;;19.93;52.77;100949.09;5128696;27;19923;-69
2023/05/10 07:30:06;;;;;;;;;;;;;;;19.94;52.75;100944.53;5132692;27;19967;-69
2023/05/10 07:32:32;;;;;;;;;;;;;;;19.94;52.54;100950.78;5112508;27;19947;-70
2023/05/10 07:34:57;;;;;;;;;;;;;;;19.94;52.87;100944.53;5130407;27;19930;-70
2023/05/10 07:37:22;;;;;;;;;;;;;;;19.55;52.81;100882.44;5108320;27;20321;-69
2023/05/10 07:39:47;;;;;;;;;;;;;;;19.94;52.54;100953.47;5133549;27;19983;-69
2023/05/10 07:42:12;;;;;;;;;;;;;;;19.94;52.77;100948.06;5129942;27;19943;-69
2023/05/10 07:44:37;;;;;;;;;;;;;;;19.94;52.71;100956.19;5135460;27;19920;-69
2023/05/10 07:47:03;;;;;;;;;;;;;;;19.94;52.60;100953.47;5133985;27;19946;-69
2023/05/10 07:49:28;;;;;;;;;;;;;;;19.94;52.47;100958.88;5136828;27;19918;-68
2023/05/10 07:51:53;;;;;;;;;;;;;;;19.94;52.39;100960.72;5137853;27;20364;-71
2023/05/10 07:54:18;;;;;;;;;;;;;;;19.93;52.54;100965.28;5119420;27;19983;-68
2023/05/10 07:56:46;;;;;;;;;;;;;;;19.93;52.44;100970.69;5133351;27;19923;-69
2023/05/10 07:59:14;;;;;;;;;;;;;;;19.93;52.73;100969.84;5130478;27;19961;-69
2023/05/10 08:01:40;;;;;;;;;;;;;;;19.93;52.42;100978.78;5124772;27;19934;-70
2023/05/10 08:04:05;;;;;;;;;;;;;;;19.92;52.46;100976.25;5132068;27;19916;-68
2023/05/10 08:06:30;;;;;;;;;;;;;;;19.93;52.43;100977.94;5131920;27;19933;-69
2023/05/10 08:08:55;;;;;;;;;;;;;;;19.93;52.65;100983.34;5129124;27;19916;-71
2023/05/10 08:11:21;;;;;;;;;;;;;;;19.93;52.72;100986.03;5130730;27;19911;-68
2023/05/10 08:13:46;;;;;;;;;;;;;;;19.92;52.47;100989.72;5135154;27;19922;-70
2023/05/10 08:16:11;;;;;;;;;;;;;;;19.92;52.65;100987.03;5130469;27;20014;-69
2023/05/10 08:18:37;;;;;;;;;;;;;;;19.92;52.69;100992.44;5138635;27;19980;-69
2023/05/10 08:21:02;;;;;;;;;;;;;;;19.92;52.33;100987.03;5130055;27;19951;-69
2023/05/10 08:23:27;;;;;;;;;;;;;;;19.92;52.42;100993.31;5129138;27;19919;-70
2023/05/10 08:25:53;;;;;;;;;;;;;;;19.93;52.51;100994.97;5132578;27;19919;-69
2023/05/10 08:28:18;;;;;;;;;;;;;;;19.93;52.41;101004.94;5131457;27;19949;-69
2023/05/10 08:30:43;;;;;;;;;;;;;;;19.93;52.55;101003.06;5126221;27;19916;-69
2023/05/10 08:33:08;;;;;;;;;;;;;;;19.92;52.29;101001.41;5132512;27;20003;-69
2023/05/10 08:35:34;;;;;;;;;;;;;;;19.93;52.39;101005.78;5118029;28;20078;-70
2023/05/10 08:37:59;;;;;;;;;;;;;;;19.92;52.50;101000.53;5111311;27;19916;-70
2023/05/10 08:40:25;;;;;;;;;;;;;;;19.93;52.47;101005.78;5135534;27;20363;-70
2023/05/10 08:42:51;;;;;;;;;;;;;;;19.93;52.34;101008.47;5110689;28;19912;-70
2023/05/10 08:45:16;;;;;;;;;;;;;;;19.94;52.55;101006.59;5137558;27;19945;-70
2023/05/10 08:47:41;;;;;;;;;;;;;;;19.93;52.48;101004.94;5132502;27;19911;-69
2023/05/10 08:50:07;;;;;;;;;;;;;;;19.93;52.29;101010.34;5123688;28;20303;-69
2023/05/10 08:52:32;;;;;;;;;;;;;;;19.93;52.38;101015.72;5134180;27;19911;-69
2023/05/10 08:54:57;;;;;;;;;;;;;;;19.93;52.45;101015.72;5123496;27;19958;-69
2023/05/10 08:57:22;;;;;;;;;;;;;;;19.93;52.49;101015.72;5113686;28;20303;-68
2023/05/10 08:59:47;;;;;;;;;;;;;;;19.92;52.28;101017.59;5127780;27;19924;-69
2023/05/10 09:02:13;;;;;;;;;;;;;;;19.92;52.54;101020.28;5131292;28;19916;-69
2023/05/10 09:04:38;;;;;;;;;;;;;;;19.92;52.20;101031.09;5111188;28;19954;-69
2023/05/10 09:07:03;;;;;;;;;;;;;;;19.94;52.37;101028.19;5134786;27;19915;-68
2023/05/10 09:09:28;;;;;;;;;;;;;;;19.94;52.29;101025.50;5123404;28;19950;-69
2023/05/10 09:11:54;;;;;;;;;;;;;;;19.94;52.46;101034.44;5134426;28;19916;-68
2023/05/10 09:14:19;;;;;;;;;;;;;;;19.95;52.20;101029.88;5115530;28;20436;-69
2023/05/10 09:16:44;;;;;;;;;;;;;;;19.96;52.45;101039.66;5121476;28;19930;-69
2023/05/10 09:19:09;;;;;;;;;;;;;;;19.96;52.25;101036.94;5136610;28;19960;-69
2023/05/10 09:21:37;;;;;;;;;;;;;;;19.96;52.56;101036.94;5111759;28;19915;-68
2023/05/10 09:24:03;;;;;;;;;;;;;;;19.95;52.37;101044.19;5117963;28;19923;-69
2023/05/10 09:26:28;;;;;;;;;;;;;;;19.96;52.08;101047.75;5130656;28;20384;-68
2023/05/10 09:28:55;;;;;;;;;;;;;;;19.96;52.13;101055.84;5132163;28;19927;-72
2023/05/10 09:31:20;;;;;;;;;;;;;;;19.96;52.07;101048.63;5133595;27;19915;-69
2023/05/10 09:33:46;;;;;;;;;;;;;;;19.96;52.16;101058.53;5119394;27;20001;-69
2023/05/10 09:36:12;;;;;;;;;;;;;;;19.96;52.50;101054.00;5116462;27;19916;-69
2023/05/10 09:38:47;;;;;;;;;;;;;;;19.97;52.24;101060.25;5135164;27;19947;-68
2023/05/10 09:41:20;;;;;;;;;;;;;;;19.98;52.23;101067.31;5140387;27;19937;-67
2023/05/10 09:43:45;;;;;;;;;;;;;;;19.98;52.36;101067.31;5116501;27;19959;-68
2023/05/10 09:46:11;;;;;;;;;;;;;;;19.98;52.57;101070.84;5121974;27;19911;-70
2023/05/10 09:48:46;;;;;;;;;;;;;;;19.98;52.65;101070.84;5132780;27;19925;-68
2023/05/10 09:51:18;;;;;;;;;;;;;;;19.99;52.61;101077.09;5137179;27;19947;-69
2023/05/10 09:53:43;;;;;;;;;;;;;;;20.00;52.44;101065.28;5133355;27;19915;-69
2023/05/10 09:56:08;;;;;;;;;;;;;;;20.01;52.75;101074.22;5115589;27;19938;-68
2023/05/10 09:58:36;;;;;;;;;;;;;;;20.01;52.73;101069.69;5134881;27;20356;-69
2023/05/10 10:01:02;;;;;;;;;;;;;;;20.01;52.91;101075.09;5131685;27;19979;-69
2023/05/10 10:03:27;;;;;;;;;;;;;;;20.03;52.98;101080.28;5133442;27;19927;-69
2023/05/10 10:05:53;;;;;;;;;;;;;;;20.03;53.10;101083.84;5116975;28;19918;-68
2023/05/10 10:08:18;;;;;;;;;;;;;;;20.03;53.08;101083.00;5139200;27;19979;-69
2023/05/10 10:10:46;;;;;;;;;;;;;;;20.04;52.86;101090.06;5132154;27;19919;-71
2023/05/10 10:13:11;;;;;;;;;;;;;;;20.04;53.06;101095.47;5142503;27;19915;-70
2023/05/10 10:15:36;;;;;;;;;;;;;;;20.04;53.05;101085.50;5117565;27;19930;-69
2023/05/10 10:18:03;;;;;;;;;;;;;;;20.04;52.93;101085.50;5134128;27;19923;-68
2023/05/10 10:20:29;;;;;;;;;;;;;;;20.04;53.29;101093.59;5117188;27;19918;-71
2023/05/10 10:22:54;;;;;;;;;;;;;;;20.07;52.89;101100.53;5132364;27;19919;-73
2023/05/10 10:25:19;;;;;;;;;;;;;;;20.07;52.96;101100.53;5132343;27;19912;-72
2023/05/10 10:27:51;;;;;;;;;;;;;;;20.07;52.90;101089.72;5113703;27;19937;-73
2023/05/10 10:30:20;;;;;;;;;;;;;;;20.07;53.25;101097.84;5134429;27;19916;-71
2023/05/10 10:33:04;;;;;;;;;;;;;;;20.08;53.28;101104.91;5135382;27;19922;-72
2023/05/10 10:35:29;;;;;;;;;;;;;;;20.08;53.40;101097.66;5130006;27;19927;-71
2023/05/10 10:37:54;;;;;;;;;;;;;;;20.08;53.35;101099.50;5110566;27;19924;-71
2023/05/10 10:40:24;;;;;;;;;;;;;;;20.08;53.26;101089.56;5119778;27;19953;-71
2023/05/10 10:42:51;;;;;;;;;;;;;;;20.09;53.32;101099.34;5132214;27;19920;-71
2023/05/10 10:45:17;;;;;;;;;;;;;;;20.09;53.58;101093.97;5135937;27;19980;-71
2023/05/10 10:47:43;;;;;;;;;;;;;;;20.10;53.40;101095.63;5135237;27;19930;-72
2023/05/10 10:50:09;;;;;;;;;;;;;;;20.11;53.53;101091.91;5130559;27;19994;-72
2023/05/10 10:52:37;;;;;;;;;;;;;;;20.12;53.57;101098.16;5114105;27;19926;-71
2023/05/10 10:55:03;;;;;;;;;;;;;;;20.13;53.55;101097.97;5133497;27;20393;-73
2023/05/10 10:57:31;;;;;;;;;;;;;;;20.14;53.35;101093.44;5134987;27;19919;-71
2023/05/10 11:00:15;;;;;;;;;;;;;;;20.15;53.34;101100.53;5134721;27;19995;-71
2023/05/10 11:02:41;;;;;;;;;;;;;;;20.16;53.53;101094.09;5137923;27;19916;-72
2023/05/10 11:05:25;;;;;;;;;;;;;;;20.16;53.07;101097.63;5132703;27;19915;-71
2023/05/10 11:07:53;;;;;;;;;;;;;;;20.17;53.38;101107.41;5137366;27;20341;-71
2023/05/10 11:10:20;;;;;;;;;;;;;;;20.17;53.13;101098.47;5136630;27;19915;-71
2023/05/10 11:13:00;;;;;;;;;;;;;;;20.17;53.09;101096.63;5132741;27;19923;-70
2023/05/10 11:15:30;;;;;;;;;;;;;;;20.17;53.32;101098.47;5138069;27;19915;-70
2023/05/10 11:17:55;;;;;;;;;;;;;;;20.18;53.17;101108.28;5132917;27;19927;-70
2023/05/10 11:20:23;;;;;;;;;;;;;;;20.17;53.02;101106.56;5136656;27;19912;-71
2023/05/10 11:22:50;;;;;;;;;;;;;;;20.17;53.25;101115.50;5129999;27;19916;-71
2023/05/10 11:25:15;;;;;;;;;;;;;;;20.16;53.07;101119.22;5132164;27;19912;-71
2023/05/10 11:27:41;;;;;;;;;;;;;;;20.17;53.09;101118.22;5133412;27;19916;-71
2023/05/10 11:30:06;;;;;;;;;;;;;;;20.17;53.34;101122.78;5134395;27;19912;-71
2023/05/10 11:32:31;;;;;;;;;;;;;;;20.17;53.28;101125.47;5132207;27;20575;-71
2023/05/10 11:34:57;;;;;;;;;;;;;;;20.17;53.15;101120.91;5137428;27;19941;-72
2023/05/10 11:37:22;;;;;;;;;;;;;;;20.17;53.33;101120.06;5134345;27;19915;-72
2023/05/10 11:39:47;;;;;;;;;;;;;;;20.17;53.43;101122.78;5137409;27;19947;-72
2023/05/10 11:42:12;;;;;;;;;;;;;;;20.17;53.01;101128.16;5134212;27;19916;-71
2023/05/10 11:44:37;;;;;;;;;;;;;;;20.18;53.32;101119.09;5134385;27;19951;-71
2023/05/10 11:47:03;;;;;;;;;;;;;;;20.18;53.36;101127.19;5114697;27;19951;-72
2023/05/10 11:49:28;;;;;;;;;;;;;;;20.18;53.22;101124.47;5135211;27;19990;-71
2023/05/10 11:51:53;;;;;;;;;;;;;;;20.19;52.90;101124.28;5133068;27;20217;-71
2023/05/10 11:54:18;;;;;;;;;;;;;;;20.19;53.12;101118.06;5120999;27;19923;-71
2023/05/10 11:56:45;;;;;;;;;;;;;;;20.20;53.38;101123.28;5139348;27;19954;-72
2023/05/10 11:59:10;;;;;;;;;;;;;;;20.20;53.38;101125.13;5132507;27;19960;-72
2023/05/10 12:01:35;;;;;;;;;;;;;;;20.20;53.14;101115.19;5134504;27;19915;-71
2023/05/10 12:04:01;;;;;;;;;;;;;;;20.10;53.16;101124.50;5133142;27;19960;-70
2023/05/10 12:06:26;;;;;;;;;;;;;;;20.01;53.41;101126.38;5131677;27;20442;-71
2023/05/10 12:08:55;;;;;;;;;;;;;;;19.90;53.58;101132.09;5133561;27;19923;-71
2023/05/10 12:11:21;;;;;;;;;;;;;;;19.83;53.51;101133.78;5133608;27;19915;-70
2023/05/10 12:13:55;;;;;;;;;;;;;;;19.87;53.55;101132.44;5071016;28;19971;-69
2023/05/10 12:16:24;;;;;;;;;;;;;;;19.92;53.84;101130.06;5050643;28;19918;-71
2023/05/10 12:18:50;;;;;;;;;;;;;;;19.95;53.50;101132.41;5058925;28;19920;-71
2023/05/10 12:21:16;;;;;;;;;;;;;;;19.98;53.58;101143.72;5047407;28;19916;-72
2023/05/10 12:23:41;;;;;;;;;;;;;;;20.02;53.20;101144.22;5049797;28;19913;-72
2023/05/10 12:26:08;;;;;;;;;;;;;;;20.05;53.46;101153.81;5046907;28;19913;-72
2023/05/10 12:28:34;;;;;;;;;;;;;;;20.08;53.43;101150.78;5055972;28;19924;-72
2023/05/10 12:30:59;;;;;;;;;;;;;;;19.65;53.67;101088.09;5057248;28;19968;-70